Longmont, CO (80501)

06:06 AM MDT die 01o October, anno 2016 (GMT -0600)
Stoney Ridge | | Change Station

Elev 5062 ft 40.19 °N, 105.09 °W | Updated 20 seconds ago

Clear
Serena
48.8 °F
Feels Like 49 °F
N
0.0
Ventus Variabilis Ventus from Magis Zephyrus quam Auster
Gusts 0.7 mph

Hodie
High -- | Low -- °F
--% Chance of Precip.
Yesterday
High -- | Low -- °F
Precip. -- in
Pressio 30.16 in
Visibilitas 7.0 milia passuum
Clouds Serena
Frigus Venti 49 °F
Frigus in quo Ros apparet 42 °F
Umor 76%
Rainfall 0.00 in
Snow Depth Not available.
6:57 AM 6:41 PM
New, 0% visible
METAR KLMO 011154Z AUTO 00000KT 7SM CLR 08/05 A3016 RMK AO2 T00780052
Pressio 30.16 in
Visibilitas 7.0 milia passuum
Clouds Serena
Frigus Venti 49 °F
Frigus in quo Ros apparet 42 °F
Umor 76%
Rainfall 0.00 in
Snow Depth Not available.
6:57 AM 6:41 PM
New, 0% visible
METAR KLMO 011154Z AUTO 00000KT 7SM CLR 08/05 A3016 RMK AO2 T00780052

10-Day Weather Forecast

Almanac

Astronomy

Oct. 01, 2016 Rise Set
Actual Time
Civil Twilight
Nautical Twilight
Astronomical Twilight
Moon
Length Of Visible Light
Length of Day
Tomorrow will be .
, % of the Moon is Illuminated

Today's Extremes

State Highs State Lows

Community

WunderPhotos

Upload Photos

1,942,918 photos uploaded!

WunderBlog® & News

Nearby

Air Quality

  Air Quality AQ Index Pollutant
Not available.

Snow Depth

Station Depth Elevation

Earthquake Activity

City Distance Mag. Time & Date
Minimum magnitude displayed is 2.5.

Coastal Water Temperatures

Locus Calor

Stations

Nearby Weather Stations

Station Location Temp Frigus Venti Frigus in quo Ros apparet Umor Ventus Precip. Elev Renovata Type
                   

Watches & Warnings

There are currently no watches in effect.